createdAt,value
2022-08-17T00:00:35.006Z,20.50
2022-08-17T00:03:10.804Z,22.57
2022-08-17T00:05:45.151Z,22.17
2022-08-17T00:08:14.729Z,25.73
2022-08-17T00:10:44.439Z,23.90
2022-08-17T00:13:15.151Z,27.90
2022-08-17T00:15:43.992Z,25.67
2022-08-17T00:19:06.275Z,26.17
2022-08-17T00:21:04.282Z,29.00
2022-08-17T00:23:39.110Z,28.57
2022-08-17T00:26:13.600Z,28.50
2022-08-17T00:28:42.439Z,29.97
2022-08-17T00:31:12.617Z,27.47
2022-08-17T00:33:42.487Z,27.20
2022-08-17T00:36:12.258Z,26.13
2022-08-17T00:38:40.756Z,26.37
2022-08-17T00:41:11.363Z,26.97
2022-08-17T00:43:44.075Z,27.10
2022-08-17T00:46:14.494Z,27.60
2022-08-17T00:48:43.043Z,23.17
2022-08-17T00:51:19.502Z,23.70
2022-08-17T00:53:54.071Z,23.80
2022-08-17T00:56:29.575Z,21.93
2022-08-17T00:58:58.047Z,20.57
2022-08-17T01:01:27.362Z,22.47
2022-08-17T01:03:59.997Z,23.90
2022-08-17T01:06:30.604Z,24.40
2022-08-17T01:09:00.653Z,25.07
2022-08-17T01:11:30.682Z,25.57
2022-08-17T01:13:59.018Z,25.60
2022-08-17T01:16:29.498Z,27.37
2022-08-17T01:19:01.274Z,24.30
2022-08-17T01:21:47.615Z,25.37
2022-08-17T01:24:17.755Z,23.23
2022-08-17T01:26:46.540Z,22.63
2022-08-17T01:29:14.943Z,23.00
2022-08-17T01:31:47.285Z,24.03
2022-08-17T01:34:18.171Z,23.53
2022-08-17T01:36:49.359Z,22.53
2022-08-17T01:39:24.984Z,22.67
2022-08-17T01:41:57.286Z,23.93
2022-08-17T01:44:28.993Z,26.67
2022-08-17T01:46:57.238Z,27.10
2022-08-17T01:49:25.430Z,26.83
2022-08-17T01:51:53.594Z,25.07
2022-08-17T01:54:24.247Z,25.20
2022-08-17T01:56:52.837Z,25.17
2022-08-17T01:59:21.535Z,25.57
2022-08-17T02:01:50.903Z,26.07
2022-08-17T02:04:19.145Z,26.10
2022-08-17T02:06:54.148Z,28.80
2022-08-17T02:09:26.279Z,25.53
2022-08-17T02:12:37.785Z,26.07
2022-08-17T02:14:48.676Z,26.00
2022-08-17T02:17:16.727Z,25.00
2022-08-17T02:19:44.803Z,23.27
2022-08-17T02:22:13.103Z,23.33
2022-08-17T02:25:00.522Z,21.47
2022-08-17T02:27:30.505Z,21.80
2022-08-17T02:29:58.599Z,23.00
2022-08-17T02:32:28.654Z,23.30
2022-08-17T02:34:57.445Z,25.37
2022-08-17T02:37:26.393Z,26.77
2022-08-17T02:39:58.387Z,27.13
2022-08-17T02:42:31.438Z,29.23
2022-08-17T02:45:00.630Z,29.77
2022-08-17T02:47:28.871Z,33.10
2022-08-17T02:49:56.986Z,33.50
2022-08-17T02:52:42.362Z,35.23
2022-08-17T02:55:17.206Z,34.13
2022-08-17T02:57:45.629Z,32.43
2022-08-17T03:00:17.928Z,34.23
2022-08-17T03:02:46.560Z,36.37
2022-08-17T03:05:17.703Z,35.10
2022-08-17T03:07:46.032Z,33.73
2022-08-17T03:10:16.497Z,33.80
2022-08-17T03:12:45.543Z,33.70
2022-08-17T03:15:15.993Z,36.80
2022-08-17T03:17:44.536Z,37.90
2022-08-17T03:20:14.170Z,37.73
2022-08-17T03:22:46.854Z,35.97
2022-08-17T03:25:24.947Z,34.53
2022-08-17T03:27:53.423Z,35.30
2022-08-17T03:30:22.635Z,37.90
2022-08-17T03:32:53.139Z,36.13
2022-08-17T03:35:24.720Z,32.10
2022-08-17T03:38:00.210Z,32.33
2022-08-17T03:40:55.159Z,32.93
2022-08-17T03:43:22.207Z,33.80
2022-08-17T03:46:11.061Z,35.60
2022-08-17T03:49:14.587Z,35.97
2022-08-17T03:52:00.532Z,37.50
2022-08-17T03:54:45.902Z,38.00
2022-08-17T03:57:15.463Z,38.87
2022-08-17T03:59:45.018Z,34.87
2022-08-17T04:02:17.447Z,38.60
2022-08-17T04:04:45.970Z,35.87
2022-08-17T04:07:14.267Z,38.00
2022-08-17T04:09:42.870Z,35.30
2022-08-17T04:12:11.023Z,39.43
2022-08-17T04:14:52.625Z,40.47
2022-08-17T04:17:24.641Z,40.27
2022-08-17T04:19:53.225Z,36.40
2022-08-17T04:22:32.737Z,36.50
2022-08-17T04:25:05.365Z,34.43
2022-08-17T04:27:33.741Z,36.47
2022-08-17T04:30:03.333Z,37.67
2022-08-17T04:33:05.086Z,36.53
2022-08-17T04:35:21.272Z,34.53
2022-08-17T04:37:49.632Z,37.30
2022-08-17T04:40:35.919Z,39.57
2022-08-17T04:43:07.210Z,35.80
2022-08-17T04:45:55.295Z,35.47
2022-08-17T04:48:29.954Z,36.13
2022-08-17T04:51:06.928Z,36.73
2022-08-17T04:53:34.986Z,34.13
2022-08-17T04:56:03.242Z,32.50
2022-08-17T04:58:31.267Z,34.33
2022-08-17T05:01:01.389Z,32.17
2022-08-17T05:03:29.630Z,33.00
2022-08-17T05:05:57.706Z,31.33
2022-08-17T05:08:25.803Z,30.80
2022-08-17T05:10:53.994Z,29.93
2022-08-17T05:13:25.073Z,34.13
2022-08-17T05:15:56.387Z,33.23
2022-08-17T05:18:26.016Z,35.70
2022-08-17T05:20:54.822Z,35.67
2022-08-17T05:23:25.617Z,34.77
2022-08-17T05:25:56.301Z,31.07
2022-08-17T05:28:27.565Z,32.63
2022-08-17T05:30:57.953Z,34.80
2022-08-17T05:33:29.665Z,35.23
2022-08-17T05:35:59.817Z,35.50
2022-08-17T05:38:30.124Z,33.20
2022-08-17T05:40:59.569Z,35.37
2022-08-17T05:43:29.711Z,32.77
2022-08-17T05:46:03.563Z,36.23
2022-08-17T05:48:39.339Z,32.87
2022-08-17T05:51:37.523Z,36.27
2022-08-17T05:54:16.466Z,37.27
2022-08-17T05:57:00.842Z,33.93
2022-08-17T05:59:36.422Z,32.37
2022-08-17T06:02:15.892Z,31.20
2022-08-17T06:05:03.615Z,27.87
2022-08-17T06:07:38.083Z,32.70
2022-08-17T06:10:13.528Z,31.77
2022-08-17T06:12:50.979Z,32.60
2022-08-17T06:15:28.823Z,29.80
2022-08-17T06:18:00.013Z,33.63
2022-08-17T06:20:35.174Z,29.00
2022-08-17T06:23:06.471Z,28.30
2022-08-17T06:25:39.141Z,32.33
2022-08-17T06:28:13.845Z,33.93
2022-08-17T06:31:00.602Z,31.67
2022-08-17T06:33:34.169Z,29.20
2022-08-17T06:36:15.927Z,32.47
2022-08-17T06:38:51.022Z,32.47
2022-08-17T06:41:26.787Z,26.23
2022-08-17T06:44:10.813Z,31.43
2022-08-17T06:46:41.383Z,32.63
2022-08-17T06:49:19.837Z,32.57
2022-08-17T06:51:53.270Z,35.33
2022-08-17T06:54:28.201Z,32.83
2022-08-17T06:57:01.696Z,33.73
2022-08-17T06:59:54.339Z,31.90
2022-08-17T07:02:52.599Z,28.93
2022-08-17T07:05:25.166Z,34.00
2022-08-17T07:08:04.092Z,34.03
2022-08-17T07:10:43.420Z,33.97
2022-08-17T07:13:34.909Z,32.03
2022-08-17T07:16:12.519Z,27.33
2022-08-17T07:18:40.668Z,33.57
2022-08-17T07:21:21.776Z,28.13
2022-08-17T07:24:08.967Z,34.03
2022-08-17T07:26:38.873Z,32.40
2022-08-17T07:29:07.098Z,31.83
2022-08-17T07:31:35.179Z,32.93
2022-08-17T07:34:07.970Z,31.13
2022-08-17T07:36:36.068Z,29.37
2022-08-17T07:39:05.854Z,35.13
2022-08-17T07:41:57.555Z,29.83
2022-08-17T07:44:28.070Z,29.53
2022-08-17T07:47:14.178Z,31.10
2022-08-17T07:49:46.106Z,30.27
2022-08-17T07:52:51.828Z,28.47
2022-08-17T07:55:31.566Z,25.27
2022-08-17T07:58:00.544Z,24.30
2022-08-17T08:00:31.994Z,28.30
2022-08-17T08:03:26.199Z,23.13
2022-08-17T08:05:57.572Z,25.20
2022-08-17T08:08:44.609Z,26.37
2022-08-17T08:11:16.373Z,23.73
2022-08-17T08:13:46.032Z,21.70
2022-08-17T08:16:25.327Z,23.47
2022-08-17T08:18:57.591Z,25.50
2022-08-17T08:21:36.725Z,25.90
2022-08-17T08:24:21.597Z,20.67
2022-08-17T08:26:56.671Z,24.73
2022-08-17T08:29:32.230Z,20.63
2022-08-17T08:32:08.081Z,19.93
2022-08-17T08:35:00.726Z,21.40
2022-08-17T08:37:42.881Z,20.87
2022-08-17T08:40:30.020Z,18.20
2022-08-17T08:43:12.533Z,17.13
2022-08-17T08:45:49.352Z,16.60
2022-08-17T08:48:56.641Z,14.43
2022-08-17T08:51:27.832Z,11.87
2022-08-17T08:54:04.605Z,13.63
2022-08-17T08:56:38.941Z,13.43
2022-08-17T08:59:20.296Z,11.27
2022-08-17T09:01:59.770Z,10.93
2022-08-17T09:05:13.001Z,11.43
2022-08-17T09:07:45.287Z,14.67
2022-08-17T09:10:21.612Z,10.20
2022-08-17T09:13:09.168Z,9.77
2022-08-17T09:15:44.070Z,9.53
2022-08-17T09:19:01.609Z,10.03
2022-08-17T09:21:11.276Z,8.63
2022-08-17T09:23:44.727Z,8.70
2022-08-17T09:26:22.767Z,9.70
2022-08-17T09:28:54.059Z,10.10
2022-08-17T09:31:33.331Z,9.03
2022-08-17T09:34:06.494Z,8.57
2022-08-17T09:36:41.771Z,9.50
2022-08-17T09:39:15.071Z,7.67
2022-08-17T09:41:49.173Z,8.43
2022-08-17T09:44:27.817Z,8.10
2022-08-17T09:47:06.090Z,7.90
2022-08-17T09:49:39.277Z,11.10
2022-08-17T09:52:15.035Z,10.03
2022-08-17T09:54:47.210Z,9.43
2022-08-17T09:57:32.596Z,9.03
2022-08-17T10:00:16.975Z,6.63
2022-08-17T10:03:17.968Z,7.47
2022-08-17T10:05:55.034Z,7.73
2022-08-17T10:08:33.867Z,10.03
2022-08-17T10:11:19.998Z,8.77
2022-08-17T10:13:56.277Z,7.53
2022-08-17T10:16:35.369Z,8.17
2022-08-17T10:19:14.696Z,9.30
2022-08-17T10:22:32.580Z,8.37
2022-08-17T10:25:23.263Z,7.90
2022-08-17T10:27:55.507Z,8.13
2022-08-17T10:30:27.534Z,10.30
2022-08-17T10:32:59.169Z,14.33
2022-08-17T10:35:36.086Z,9.17
2022-08-17T10:38:40.004Z,8.43
2022-08-17T10:41:20.989Z,8.53
2022-08-17T10:44:36.935Z,7.87
2022-08-17T10:47:10.457Z,8.20
2022-08-17T10:49:47.423Z,8.47
2022-08-17T10:52:49.293Z,10.40
2022-08-17T10:55:21.046Z,7.50
2022-08-17T10:57:51.216Z,7.90
2022-08-17T11:00:57.616Z,9.20
2022-08-17T11:03:27.570Z,8.13
2022-08-17T11:06:07.030Z,7.70
2022-08-17T11:08:59.510Z,6.83
2022-08-17T11:12:02.577Z,7.77
2022-08-17T11:14:43.963Z,6.60
2022-08-17T11:17:45.630Z,7.93
2022-08-17T11:20:38.709Z,8.03
2022-08-17T11:23:23.875Z,6.37
2022-08-17T11:25:54.443Z,6.43
2022-08-17T11:28:28.013Z,7.13
2022-08-17T11:30:59.029Z,6.83
2022-08-17T11:33:53.910Z,5.90
2022-08-17T11:36:34.696Z,6.20
2022-08-17T11:39:07.722Z,5.53
2022-08-17T11:41:48.872Z,5.80
2022-08-17T11:44:37.511Z,5.93
2022-08-17T11:47:32.997Z,6.57
2022-08-17T11:50:49.837Z,6.70
2022-08-17T11:54:03.607Z,5.93
2022-08-17T11:56:46.506Z,5.90
2022-08-17T11:59:51.761Z,8.23
2022-08-17T12:02:38.815Z,6.33
2022-08-17T12:05:34.978Z,5.83
2022-08-17T12:08:17.635Z,5.57
2022-08-17T12:10:59.363Z,7.27
2022-08-17T12:13:34.682Z,5.93
2022-08-17T12:16:09.892Z,7.33
2022-08-17T12:18:42.107Z,5.90
2022-08-17T12:21:32.977Z,7.47
2022-08-17T12:24:07.459Z,9.03
2022-08-17T12:26:37.235Z,6.63
2022-08-17T12:29:09.273Z,6.13
2022-08-17T12:31:48.574Z,6.00
2022-08-17T12:34:20.567Z,6.10
2022-08-17T12:36:51.572Z,6.43
2022-08-17T12:39:22.471Z,6.03
2022-08-17T12:42:02.018Z,5.60
2022-08-17T12:44:33.176Z,6.17
2022-08-17T12:47:04.656Z,7.23
2022-08-17T12:49:36.940Z,6.47
2022-08-17T12:52:13.596Z,5.50
2022-08-17T12:54:59.641Z,6.20
2022-08-17T12:57:33.368Z,6.17
2022-08-17T13:00:09.199Z,5.50
2022-08-17T13:02:45.013Z,6.83
2022-08-17T13:05:23.118Z,6.00
2022-08-17T13:07:53.099Z,5.80
2022-08-17T13:10:32.229Z,5.67
2022-08-17T13:13:05.938Z,5.30
2022-08-17T13:15:43.258Z,5.30
2022-08-17T13:18:39.499Z,6.17
2022-08-17T13:21:22.076Z,8.97
2022-08-17T13:24:02.030Z,5.53
2022-08-17T13:26:33.897Z,6.03
2022-08-17T13:29:03.574Z,5.40
2022-08-17T13:31:52.464Z,5.57
2022-08-17T13:35:08.312Z,6.27
2022-08-17T13:37:30.675Z,5.67
2022-08-17T13:40:00.858Z,6.70
2022-08-17T13:42:52.023Z,5.13
2022-08-17T13:45:43.930Z,5.50
2022-08-17T13:48:23.808Z,8.37
2022-08-17T13:51:16.482Z,6.77
2022-08-17T13:53:59.222Z,5.30
2022-08-17T13:56:39.185Z,5.77
2022-08-17T13:59:11.046Z,5.33
2022-08-17T14:01:42.075Z,5.30
2022-08-17T14:04:11.648Z,6.33
2022-08-17T14:06:54.141Z,5.27
2022-08-17T14:09:29.777Z,5.13
2022-08-17T14:12:00.438Z,9.33
2022-08-17T14:14:29.210Z,6.00
2022-08-17T14:16:57.986Z,6.23
2022-08-17T14:19:26.943Z,6.17
2022-08-17T14:21:56.501Z,5.80
2022-08-17T14:24:31.069Z,5.30
2022-08-17T14:27:00.288Z,5.30
2022-08-17T14:29:30.218Z,5.17
2022-08-17T14:31:59.185Z,5.80
2022-08-17T14:34:27.314Z,5.07
2022-08-17T14:36:56.448Z,5.07
2022-08-17T14:39:26.030Z,5.20
2022-08-17T14:41:54.263Z,5.43
2022-08-17T14:44:22.318Z,5.43
2022-08-17T14:46:50.513Z,4.93
2022-08-17T14:49:20.628Z,5.60
2022-08-17T14:51:49.503Z,7.27
2022-08-17T14:54:32.849Z,6.20
2022-08-17T14:57:22.856Z,5.83
2022-08-17T14:59:54.618Z,8.03
2022-08-17T15:02:29.909Z,6.50
2022-08-17T15:05:00.660Z,7.03
2022-08-17T15:07:30.770Z,5.40
2022-08-17T15:10:00.765Z,7.10
2022-08-17T15:12:34.233Z,7.23
2022-08-17T15:15:04.946Z,5.93
2022-08-17T15:17:44.678Z,5.50
2022-08-17T15:20:16.639Z,5.50
2022-08-17T15:22:49.334Z,5.70
2022-08-17T15:25:18.890Z,5.90
2022-08-17T15:27:48.310Z,7.07
2022-08-17T15:30:16.541Z,5.70
2022-08-17T15:32:50.983Z,6.77
2022-08-17T15:35:27.929Z,5.63
2022-08-17T15:38:04.560Z,6.80
2022-08-17T15:40:36.609Z,5.80
2022-08-17T15:43:07.311Z,6.47
2022-08-17T15:45:35.371Z,8.10
2022-08-17T15:48:03.690Z,6.30
2022-08-17T15:50:32.067Z,6.30
2022-08-17T15:53:01.758Z,6.43
2022-08-17T15:55:32.490Z,6.30
2022-08-17T15:58:00.750Z,6.00
2022-08-17T16:00:30.433Z,7.97
2022-08-17T16:03:47.027Z,6.37
2022-08-17T16:05:49.859Z,6.80
2022-08-17T16:08:21.311Z,6.33
2022-08-17T16:10:50.588Z,6.80
2022-08-17T16:13:19.919Z,9.17
2022-08-17T16:15:57.191Z,6.20
2022-08-17T16:18:30.741Z,7.20
2022-08-17T16:21:19.861Z,6.63
2022-08-17T16:23:49.135Z,6.43
2022-08-17T16:26:17.974Z,8.90
2022-08-17T16:28:46.792Z,6.70
2022-08-17T16:31:16.629Z,6.13
2022-08-17T16:34:15.775Z,6.43
2022-08-17T16:36:33.403Z,7.77
2022-08-17T16:39:01.587Z,7.73
2022-08-17T16:41:45.459Z,6.70
2022-08-17T16:44:15.306Z,5.93
2022-08-17T16:46:46.156Z,8.87
2022-08-17T16:49:37.186Z,7.17
2022-08-17T16:52:03.959Z,6.47
2022-08-17T16:54:32.612Z,7.00
2022-08-17T16:57:00.667Z,8.10
2022-08-17T16:59:31.240Z,6.67
2022-08-17T17:02:10.749Z,8.60
2022-08-17T17:04:45.988Z,8.67
2022-08-17T17:07:33.779Z,7.10
2022-08-17T17:10:06.578Z,9.03
2022-08-17T17:13:01.430Z,8.13
2022-08-17T17:15:28.141Z,7.33
2022-08-17T17:18:06.995Z,11.43
2022-08-17T17:20:41.431Z,7.97
2022-08-17T17:23:17.383Z,8.43
2022-08-17T17:26:00.049Z,9.13
2022-08-17T17:28:38.606Z,8.70
2022-08-17T17:31:13.587Z,9.57
2022-08-17T17:33:48.230Z,9.13
2022-08-17T17:36:27.224Z,8.40
2022-08-17T17:39:00.190Z,8.47
2022-08-17T17:41:33.882Z,8.70
2022-08-17T17:44:05.830Z,8.53
2022-08-17T17:46:39.315Z,11.07
2022-08-17T17:49:10.538Z,10.33
2022-08-17T17:52:07.821Z,9.70
2022-08-17T17:54:51.369Z,10.23
2022-08-17T17:57:28.287Z,9.60
2022-08-17T18:00:03.539Z,10.07
2022-08-17T18:02:52.643Z,8.77
2022-08-17T18:05:49.312Z,6.10
2022-08-17T18:08:34.277Z,7.87
2022-08-17T18:11:23.947Z,6.90
2022-08-17T18:14:14.544Z,5.67
2022-08-17T18:16:43.288Z,9.00
2022-08-17T18:19:14.033Z,8.30
2022-08-17T18:21:48.210Z,6.47
2022-08-17T18:24:16.253Z,6.27
2022-08-17T18:26:55.170Z,7.73
2022-08-17T18:29:37.946Z,7.03
2022-08-17T18:32:19.583Z,8.23
2022-08-17T18:34:50.784Z,9.17
2022-08-17T18:37:33.706Z,9.77
2022-08-17T18:40:24.507Z,7.50
2022-08-17T18:43:09.755Z,8.13
2022-08-17T18:45:42.415Z,10.57
2022-08-17T18:48:28.408Z,8.50
2022-08-17T18:50:59.532Z,7.53
2022-08-17T18:53:35.950Z,7.40
2022-08-17T18:56:24.350Z,7.60
2022-08-17T18:58:59.534Z,7.40
2022-08-17T19:01:42.071Z,7.03
2022-08-17T19:04:35.583Z,6.77
2022-08-17T19:07:08.462Z,7.00
2022-08-17T19:09:43.241Z,5.90
2022-08-17T19:12:17.382Z,7.50
2022-08-17T19:14:45.506Z,7.13
2022-08-17T19:17:22.280Z,8.30
2022-08-17T19:19:57.549Z,4.87
2022-08-17T19:22:31.076Z,10.83
2022-08-17T19:25:11.873Z,5.27
2022-08-17T19:27:57.425Z,6.40
2022-08-17T19:30:27.746Z,5.73
2022-08-17T19:32:58.337Z,6.23
2022-08-17T19:35:32.827Z,6.80
2022-08-17T19:38:12.877Z,5.77
2022-08-17T19:40:56.192Z,5.03
2022-08-17T19:43:34.364Z,4.60
2022-08-17T19:46:08.443Z,4.53
2022-08-17T19:48:46.587Z,4.40
2022-08-17T19:51:20.588Z,3.93
2022-08-17T19:54:05.296Z,3.63
2022-08-17T19:56:45.128Z,3.30
2022-08-17T19:59:21.147Z,3.40
2022-08-17T20:01:53.852Z,3.27
2022-08-17T20:04:35.490Z,3.40
2022-08-17T20:07:11.977Z,2.33
2022-08-17T20:09:44.337Z,3.80
2022-08-17T20:12:18.168Z,2.37
2022-08-17T20:14:53.535Z,3.03
2022-08-17T20:17:28.638Z,2.00
2022-08-17T20:20:02.712Z,2.40
2022-08-17T20:22:36.827Z,3.13
2022-08-17T20:25:29.942Z,3.80
2022-08-17T20:28:07.028Z,2.37
2022-08-17T20:30:38.755Z,2.93
2022-08-17T20:33:12.502Z,3.40
2022-08-17T20:36:00.158Z,3.00
2022-08-17T20:38:43.425Z,2.70
2022-08-17T20:41:14.909Z,3.10
2022-08-17T20:43:51.098Z,3.60
2022-08-17T20:46:51.552Z,3.10
2022-08-17T20:49:25.959Z,3.07
2022-08-17T20:52:02.577Z,2.90
2022-08-17T20:54:44.743Z,3.10
2022-08-17T20:57:48.603Z,3.10
2022-08-17T21:00:42.561Z,3.10
2022-08-17T21:03:51.889Z,4.00
2022-08-17T21:06:25.264Z,4.07
2022-08-17T21:08:59.425Z,4.50
2022-08-17T21:12:04.168Z,4.60
2022-08-17T21:14:44.434Z,4.83
2022-08-17T21:17:41.907Z,4.33
2022-08-17T21:20:23.867Z,5.53
2022-08-17T21:23:01.466Z,4.20
2022-08-17T21:25:55.283Z,4.53
2022-08-17T21:28:34.594Z,6.03
2022-08-17T21:31:09.117Z,5.60
2022-08-17T21:33:40.777Z,5.63
2022-08-17T21:36:25.669Z,6.17
2022-08-17T21:39:01.359Z,6.00
2022-08-17T21:41:33.427Z,5.87
2022-08-17T21:44:11.898Z,8.83
2022-08-17T21:46:42.995Z,8.13
2022-08-17T21:49:19.349Z,8.90
2022-08-17T21:51:50.367Z,9.70
2022-08-17T21:54:31.645Z,9.57
2022-08-17T21:57:02.495Z,10.00
2022-08-17T21:59:34.592Z,11.90
2022-08-17T22:02:05.651Z,10.20
2022-08-17T22:04:37.068Z,12.97
2022-08-17T22:07:08.467Z,13.20
2022-08-17T22:09:42.840Z,12.27
2022-08-17T22:12:13.442Z,14.63
2022-08-17T22:14:52.960Z,15.83
2022-08-17T22:17:25.064Z,15.93
2022-08-17T22:19:57.357Z,17.23
2022-08-17T22:22:32.351Z,16.80
2022-08-17T22:25:04.435Z,16.07
2022-08-17T22:27:48.540Z,18.53
2022-08-17T22:30:27.514Z,15.20
2022-08-17T22:32:56.001Z,16.67
2022-08-17T22:35:36.543Z,15.30
2022-08-17T22:38:27.601Z,15.07
2022-08-17T22:41:15.086Z,16.07
2022-08-17T22:43:44.733Z,16.20
2022-08-17T22:46:14.867Z,15.13
2022-08-17T22:48:50.140Z,14.00
2022-08-17T22:51:23.835Z,16.17
2022-08-17T22:54:11.158Z,14.57
2022-08-17T22:56:56.763Z,15.27
2022-08-17T22:59:46.262Z,13.77
2022-08-17T23:02:25.826Z,12.87
2022-08-17T23:04:57.332Z,14.47
2022-08-17T23:07:26.742Z,12.43
2022-08-17T23:09:55.345Z,14.33
2022-08-17T23:12:27.373Z,13.60
2022-08-17T23:15:01.472Z,14.20
2022-08-17T23:17:33.912Z,11.97
2022-08-17T23:20:06.363Z,14.07
2022-08-17T23:22:37.416Z,14.47
2022-08-17T23:25:26.826Z,13.23
2022-08-17T23:27:55.228Z,15.73
2022-08-17T23:30:25.385Z,13.80
2022-08-17T23:32:54.264Z,13.57
2022-08-17T23:35:39.616Z,13.30
2022-08-17T23:38:10.657Z,12.93
2022-08-17T23:40:39.882Z,13.10
2022-08-17T23:43:23.444Z,13.07
2022-08-17T23:45:53.772Z,11.87
2022-08-17T23:48:35.877Z,11.63
2022-08-17T23:51:09.120Z,13.37
2022-08-17T23:53:43.975Z,12.63
2022-08-17T23:56:12.118Z,11.53
2022-08-17T23:58:42.129Z,12.20
